createdAt,value
2022-08-18T04:34:47.882Z,100565.91
2022-08-18T04:39:50.228Z,100562.63
2022-08-18T04:44:53.064Z,100581.09
2022-08-18T04:49:55.381Z,100589.09
2022-08-18T04:54:57.751Z,100598.00
2022-08-18T05:00:00.117Z,100598.91
2022-08-18T05:05:03.905Z,100595.41
2022-08-18T05:10:06.518Z,100597.16
2022-08-18T05:15:10.239Z,100601.56
2022-08-18T05:20:12.688Z,100613.88
2022-08-18T05:25:16.161Z,100602.59
2022-08-18T05:30:18.642Z,100613.22
2022-08-18T05:41:14.058Z,100618.06
2022-08-18T05:46:17.217Z,100620.78
2022-08-18T05:51:41.290Z,100617.31
2022-08-18T05:56:47.440Z,100609.66
2022-08-18T06:01:56.269Z,100613.22
2022-08-18T06:07:04.315Z,100609.91
2022-08-18T06:12:19.549Z,100606.53
2022-08-18T06:17:26.253Z,100601.38
2022-08-18T06:22:37.713Z,100594.38
2022-08-18T06:28:14.204Z,100599.63
2022-08-18T06:33:54.866Z,100606.66
2022-08-18T06:39:23.517Z,100601.47
2022-08-18T06:44:45.566Z,100604.09
2022-08-18T06:50:02.834Z,100613.66
2022-08-18T06:55:32.806Z,100617.03
2022-08-18T07:00:39.124Z,100615.94
2022-08-18T07:06:06.241Z,100625.28
2022-08-18T07:11:17.216Z,100623.41
2022-08-18T07:16:56.670Z,100638.31
2022-08-18T07:22:13.551Z,100635.69
2022-08-18T07:27:20.123Z,100633.13
2022-08-18T07:32:23.934Z,100635.75
2022-08-18T07:37:32.450Z,100633.06
2022-08-18T07:43:01.519Z,100638.25
2022-08-18T07:48:44.384Z,100638.91
2022-08-18T07:53:54.467Z,100645.69
2022-08-18T07:59:09.350Z,100651.69
2022-08-18T08:04:26.600Z,100647.13
2022-08-18T08:09:47.157Z,100658.34
2022-08-18T08:15:03.971Z,100660.25
2022-08-18T08:20:17.854Z,100667.22
2022-08-18T08:25:44.692Z,100665.25
2022-08-18T08:31:35.344Z,100660.09
2022-08-18T08:36:40.264Z,100669.13
2022-08-18T08:42:29.521Z,100660.34
2022-08-18T08:47:36.457Z,100658.88
2022-08-18T08:52:46.360Z,100660.56
2022-08-18T08:57:57.494Z,100663.06
2022-08-18T09:03:02.465Z,100660.09
2022-08-18T09:08:07.745Z,100668.63
2022-08-18T09:13:36.216Z,100662.41
2022-08-18T09:18:45.528Z,100655.75
2022-08-18T09:23:53.759Z,100642.88
2022-08-18T09:29:12.959Z,100635.22
2022-08-18T09:34:31.792Z,100627.53
2022-08-18T09:39:57.726Z,100622.03
2022-08-18T09:45:05.604Z,100624.59
2022-08-18T09:50:30.177Z,100622.06
2022-08-18T09:55:32.438Z,100623.69
2022-08-18T10:00:34.882Z,100613.53
2022-08-18T10:05:38.679Z,100609.84
2022-08-18T10:16:22.178Z,100603.56
2022-08-18T10:21:31.292Z,100605.75
2022-08-18T10:26:40.875Z,100602.66
2022-08-18T10:31:57.406Z,100593.91
2022-08-18T10:37:26.866Z,100592.00
2022-08-18T10:42:53.938Z,100591.66
2022-08-18T10:48:16.650Z,100594.69
2022-08-18T10:53:39.391Z,100592.91
2022-08-18T10:58:58.489Z,100591.94
2022-08-18T11:04:14.179Z,100593.13
2022-08-18T11:09:28.226Z,100581.69
2022-08-18T11:14:52.700Z,100577.44
2022-08-18T11:19:56.029Z,100570.06
2022-08-18T11:24:59.724Z,100567.84
2022-08-18T11:30:05.883Z,100565.16
2022-08-18T11:35:16.255Z,100564.25
2022-08-18T11:46:00.321Z,100561.34
2022-08-18T11:51:09.274Z,100556.59
2022-08-18T11:56:21.239Z,100555.44
2022-08-18T12:01:41.514Z,100560.06
2022-08-18T12:06:57.947Z,100557.97
2022-08-18T12:12:13.771Z,100546.19
2022-08-18T12:17:16.301Z,100528.63
2022-08-18T12:22:28.141Z,100519.19
2022-08-18T12:27:33.774Z,100509.38
2022-08-18T12:32:48.939Z,100504.19
2022-08-18T12:38:04.965Z,100506.94
2022-08-18T12:43:15.711Z,100504.63
2022-08-18T12:48:22.310Z,100505.41
2022-08-18T12:53:29.993Z,100487.78
2022-08-18T12:58:40.727Z,100482.88
2022-08-18T13:03:44.739Z,100470.78
2022-08-18T13:08:55.376Z,100490.94
2022-08-18T13:13:58.678Z,100505.50
2022-08-18T13:19:02.071Z,100533.50
2022-08-18T13:24:09.795Z,100584.47
2022-08-18T13:29:17.559Z,100582.41
2022-08-18T13:34:20.590Z,100553.06
2022-08-18T13:39:25.085Z,100488.69
2022-08-18T13:44:36.870Z,100486.47
2022-08-18T13:49:39.279Z,100474.72
2022-08-18T13:54:42.483Z,100466.34
2022-08-18T13:59:46.501Z,100464.41
2022-08-18T14:04:49.516Z,100453.19
2022-08-18T14:09:54.328Z,100443.91
2022-08-18T14:14:57.160Z,100438.69
2022-08-18T14:20:21.686Z,100434.66
2022-08-18T14:25:44.914Z,100437.50
2022-08-18T14:30:54.178Z,100444.63
2022-08-18T14:36:06.447Z,100444.78
2022-08-18T14:41:14.432Z,100461.38
2022-08-18T14:46:17.275Z,100459.78
2022-08-18T14:51:19.759Z,100494.81
2022-08-18T14:56:33.787Z,100528.06
2022-08-18T15:01:42.792Z,100535.03
2022-08-18T15:06:45.390Z,100545.53
2022-08-18T15:12:00.172Z,100539.44
2022-08-18T15:17:11.769Z,100535.91
2022-08-18T15:22:34.328Z,100521.91
2022-08-18T15:27:42.186Z,100523.63
2022-08-18T15:32:47.161Z,100520.19
2022-08-18T15:37:54.759Z,100538.53
2022-08-18T15:43:01.542Z,100533.28
2022-08-18T15:48:04.498Z,100534.94
2022-08-18T15:53:07.946Z,100546.25
2022-08-18T15:58:12.888Z,100553.25
2022-08-18T16:03:16.896Z,100546.28
2022-08-18T16:08:21.589Z,100548.91
2022-08-18T16:13:26.448Z,100540.91
2022-08-18T16:18:29.549Z,100533.84
2022-08-18T16:23:31.931Z,100545.31
2022-08-18T16:28:39.302Z,100571.69
2022-08-18T16:33:43.241Z,100597.06
2022-08-18T16:38:47.190Z,100628.56
2022-08-18T16:43:49.836Z,100652.97
2022-08-18T16:48:53.514Z,100674.75
2022-08-18T16:53:56.124Z,100688.56
2022-08-18T16:59:17.236Z,100689.38
2022-08-18T17:04:22.954Z,100695.41
2022-08-18T17:09:26.112Z,100692.63
2022-08-18T17:14:30.382Z,100695.16
2022-08-18T17:19:35.362Z,100686.41
2022-08-18T17:24:38.450Z,100689.84
2022-08-18T17:30:07.079Z,100693.28
2022-08-18T17:35:15.590Z,100681.09
2022-08-18T17:40:29.730Z,100673.25
2022-08-18T17:45:36.345Z,100660.16
2022-08-18T17:51:09.808Z,100641.91
2022-08-18T17:56:42.559Z,100627.91
2022-08-18T18:01:45.027Z,100620.81
2022-08-18T18:06:49.435Z,100630.34
2022-08-18T18:11:52.535Z,100621.56
2022-08-18T18:17:14.495Z,100618.03
2022-08-18T18:22:24.197Z,100611.97
2022-08-18T18:27:28.938Z,100605.03
2022-08-18T18:32:38.581Z,100592.75
2022-08-18T18:37:57.370Z,100570.97
2022-08-18T18:43:26.019Z,100558.84
2022-08-18T18:48:51.107Z,100556.22
2022-08-18T18:54:19.208Z,100558.78
2022-08-18T18:59:26.729Z,100574.41
2022-08-18T19:04:44.924Z,100583.09
2022-08-18T19:09:59.873Z,100579.53
2022-08-18T19:15:11.649Z,100585.66
2022-08-18T19:20:23.461Z,100575.22
2022-08-18T19:25:29.038Z,100575.22
2022-08-18T19:30:37.053Z,100579.59
2022-08-18T19:35:59.092Z,100582.06
2022-08-18T19:41:31.859Z,100568.88
2022-08-18T19:46:44.944Z,100571.53
2022-08-18T19:51:50.485Z,100575.88
2022-08-18T19:57:07.374Z,100576.78
2022-08-18T20:02:56.064Z,100577.53
2022-08-18T20:08:30.836Z,100563.69
2022-08-18T20:13:42.545Z,100557.47
2022-08-18T20:18:49.540Z,100549.63
2022-08-18T20:24:29.552Z,100545.22
2022-08-18T20:29:36.310Z,100538.19
2022-08-18T20:34:38.765Z,100556.50
2022-08-18T20:39:48.461Z,100563.31
2022-08-18T20:44:50.939Z,100568.56
2022-08-18T20:50:20.360Z,100584.31
2022-08-18T20:55:53.106Z,100564.19
2022-08-18T21:00:57.372Z,100552.88
2022-08-18T21:05:59.886Z,100553.63
2022-08-18T21:11:31.906Z,100559.75
2022-08-18T21:16:39.789Z,100559.72
2022-08-18T21:21:51.736Z,100565.75
2022-08-18T21:27:00.001Z,100555.31
2022-08-18T21:32:12.193Z,100563.09
2022-08-18T21:37:18.204Z,100552.72
2022-08-18T21:42:27.596Z,100545.69
2022-08-18T21:47:33.627Z,100552.66
2022-08-18T21:52:39.799Z,100557.13
2022-08-18T21:58:08.623Z,100576.28
